createdAt,value
2022-08-07T00:00:03.473Z,88.45
2022-08-07T00:00:59.499Z,88.65
2022-08-07T00:02:40.797Z,88.35
2022-08-07T00:02:59.750Z,88.45
2022-08-07T00:03:58.716Z,88.56
2022-08-07T00:04:58.803Z,88.24
2022-08-07T00:05:58.716Z,88.56
2022-08-07T00:07:01.341Z,88.45
2022-08-07T00:08:02.029Z,88.80
2022-08-07T00:08:58.698Z,88.80
2022-08-07T00:10:19.140Z,88.80
2022-08-07T00:11:00.679Z,88.59
2022-08-07T00:11:59.016Z,88.90
2022-08-07T00:13:01.213Z,88.96
2022-08-07T00:13:58.644Z,88.80
2022-08-07T00:14:58.629Z,89.06
2022-08-07T00:15:58.648Z,88.90
2022-08-07T00:16:58.619Z,88.96
2022-08-07T00:17:58.645Z,90.03
2022-08-07T00:18:58.605Z,89.92
2022-08-07T00:20:01.532Z,89.78
2022-08-07T00:21:01.355Z,88.86
2022-08-07T00:22:01.976Z,88.76
2022-08-07T00:22:58.591Z,90.15
2022-08-07T00:23:58.563Z,88.82
2022-08-07T00:24:58.567Z,88.98
2022-08-07T00:26:01.820Z,88.57
2022-08-07T00:27:07.533Z,88.74
2022-08-07T00:27:59.553Z,88.88
2022-08-07T00:28:58.723Z,89.53
2022-08-07T00:29:58.534Z,89.80
2022-08-07T00:30:58.522Z,89.59
2022-08-07T00:31:58.509Z,90.00
2022-08-07T00:32:58.623Z,89.86
2022-08-07T00:33:58.521Z,90.31
2022-08-07T00:34:58.482Z,90.31
2022-08-07T00:35:58.489Z,89.80
2022-08-07T00:36:58.471Z,88.88
2022-08-07T00:37:58.480Z,88.71
2022-08-07T00:38:58.544Z,88.92
2022-08-07T00:39:58.449Z,88.86
2022-08-07T00:40:59.447Z,88.24
2022-08-07T00:42:02.369Z,88.45
2022-08-07T00:42:59.444Z,89.00
2022-08-07T00:44:00.725Z,88.80
2022-08-07T00:44:58.411Z,88.90
2022-08-07T00:45:58.409Z,89.21
2022-08-07T00:46:58.410Z,89.21
2022-08-07T00:48:09.839Z,89.42
2022-08-07T00:48:59.379Z,89.56
2022-08-07T00:50:20.774Z,89.97
2022-08-07T00:50:59.395Z,89.66
2022-08-07T00:51:58.879Z,89.76
2022-08-07T00:52:58.343Z,90.07
2022-08-07T00:53:58.341Z,89.56
2022-08-07T00:54:58.354Z,90.58
2022-08-07T00:56:02.053Z,90.48
2022-08-07T00:56:59.342Z,90.79
2022-08-07T00:57:58.331Z,91.14
2022-08-07T00:58:58.298Z,91.03
2022-08-07T00:59:58.322Z,90.52
2022-08-07T01:00:58.332Z,90.73
2022-08-07T01:01:58.330Z,90.73
2022-08-07T01:02:58.299Z,91.03
2022-08-07T01:04:00.118Z,90.62
2022-08-07T01:04:59.074Z,90.87
2022-08-07T01:05:58.243Z,91.90
2022-08-07T01:06:58.234Z,91.69
2022-08-07T01:07:58.259Z,91.80
2022-08-07T01:08:58.618Z,90.73
2022-08-07T01:10:06.226Z,90.77
2022-08-07T01:11:00.738Z,91.28
2022-08-07T01:12:23.969Z,91.28
2022-08-07T01:12:59.248Z,91.49
2022-08-07T01:13:58.197Z,91.38
2022-08-07T01:15:01.611Z,91.49
2022-08-07T01:16:00.826Z,91.28
2022-08-07T01:16:59.185Z,91.38
2022-08-07T01:17:58.177Z,91.69
2022-08-07T01:18:58.150Z,91.84
2022-08-07T01:19:58.142Z,91.63
2022-08-07T01:20:59.798Z,91.42
2022-08-07T01:21:58.115Z,91.63
2022-08-07T01:23:12.081Z,91.74
2022-08-07T01:23:59.095Z,91.94
2022-08-07T01:24:58.111Z,92.14
2022-08-07T01:25:58.105Z,91.84
2022-08-07T01:26:58.103Z,92.04
2022-08-07T01:27:58.144Z,92.60
2022-08-07T01:28:58.090Z,92.60
2022-08-07T01:29:58.057Z,92.50
2022-08-07T01:30:58.055Z,92.60
2022-08-07T01:31:59.335Z,92.70
2022-08-07T01:32:58.215Z,93.01
2022-08-07T01:33:58.095Z,92.50
2022-08-07T01:34:58.013Z,92.50
2022-08-07T01:36:06.387Z,93.01
2022-08-07T01:36:59.003Z,93.01
2022-08-07T01:37:57.992Z,93.67
2022-08-07T01:38:58.031Z,93.73
2022-08-07T01:39:58.056Z,93.42
2022-08-07T01:40:57.991Z,93.42
2022-08-07T01:42:38.777Z,93.21
2022-08-07T01:42:59.663Z,93.01
2022-08-07T01:43:57.972Z,93.16
2022-08-07T01:44:57.948Z,93.16
2022-08-07T02:02:32.866Z,94.18
2022-08-07T02:03:32.042Z,94.59
2022-08-07T02:04:32.807Z,93.77
2022-08-07T02:05:43.088Z,93.71
2022-08-07T02:06:32.710Z,93.92
2022-08-07T02:07:45.131Z,93.67
2022-08-07T02:08:32.695Z,93.71
2022-08-07T02:09:33.769Z,93.77
2022-08-07T02:10:32.659Z,94.02
2022-08-07T02:12:04.279Z,94.33
2022-08-07T02:12:32.646Z,94.02
2022-08-07T02:13:56.533Z,94.54
2022-08-07T02:14:36.217Z,94.54
2022-08-07T02:15:34.097Z,94.54
2022-08-07T02:16:33.486Z,94.33
2022-08-07T02:17:34.306Z,94.23
2022-08-07T02:18:31.621Z,94.02
2022-08-07T02:20:07.470Z,94.54
2022-08-07T02:20:32.737Z,94.54
2022-08-07T02:21:56.172Z,94.02
2022-08-07T02:23:03.509Z,94.23
2022-08-07T02:23:35.817Z,94.02
2022-08-07T02:24:31.587Z,94.33
2022-08-07T02:26:10.532Z,94.23
2022-08-07T02:26:34.399Z,94.12
2022-08-07T02:27:34.715Z,94.43
2022-08-07T02:28:31.525Z,94.02
2022-08-07T02:29:31.527Z,93.92
2022-08-07T02:30:31.530Z,94.64
2022-08-07T02:31:32.746Z,94.74
2022-08-07T02:32:31.491Z,94.43
2022-08-07T02:33:42.074Z,94.23
2022-08-07T02:34:32.491Z,94.54
2022-08-07T02:36:29.968Z,94.48
2022-08-07T02:36:33.057Z,94.27
2022-08-07T02:37:33.928Z,94.37
2022-08-07T02:38:32.082Z,94.54
2022-08-07T02:40:01.592Z,94.58
2022-08-07T02:40:35.365Z,94.48
2022-08-07T02:41:33.630Z,94.27
2022-08-07T02:42:32.393Z,94.37
2022-08-07T02:43:31.395Z,94.89
2022-08-07T02:44:34.763Z,94.48
2022-08-07T02:46:00.576Z,94.37
2022-08-07T02:46:32.367Z,94.99
2022-08-07T02:47:45.053Z,95.40
2022-08-07T02:48:32.345Z,94.78
2022-08-07T02:49:57.900Z,95.61
2022-08-07T02:50:32.353Z,95.30
2022-08-07T02:51:42.650Z,95.09
2022-08-07T02:52:32.627Z,95.09
2022-08-07T02:53:31.316Z,95.30
2022-08-07T02:54:32.319Z,94.99
2022-08-07T02:56:02.218Z,95.14
2022-08-07T02:56:32.313Z,95.20
2022-08-07T02:57:34.931Z,95.14
2022-08-07T02:58:33.368Z,95.24
2022-08-07T02:59:31.278Z,95.45
2022-08-07T03:00:32.235Z,95.40
2022-08-07T03:01:36.123Z,95.30
2022-08-07T03:02:32.233Z,95.09
2022-08-07T03:03:49.105Z,95.24
2022-08-07T03:04:32.290Z,95.71
2022-08-07T03:05:35.872Z,95.86
2022-08-07T03:06:34.572Z,95.81
2022-08-07T03:08:05.421Z,95.92
2022-08-07T03:08:32.209Z,95.75
2022-08-07T03:09:41.858Z,94.83
2022-08-07T03:10:32.204Z,95.34
2022-08-07T03:11:32.717Z,95.14
2022-08-07T03:12:31.325Z,95.55
2022-08-07T03:13:39.173Z,95.45
2022-08-07T03:14:32.160Z,95.45
2022-08-07T03:15:55.867Z,95.92
2022-08-07T03:16:32.132Z,95.96
2022-08-07T03:17:31.255Z,95.24
2022-08-07T03:18:34.753Z,95.55
2022-08-07T03:19:37.281Z,95.86
2022-08-07T03:20:32.107Z,95.45
2022-08-07T03:21:33.011Z,95.96
2022-08-07T03:22:31.115Z,95.55
2022-08-07T03:23:33.865Z,95.96
2022-08-07T03:24:32.074Z,96.06
2022-08-07T03:25:32.509Z,95.96
2022-08-07T03:26:32.057Z,96.06
2022-08-07T03:28:09.249Z,95.96
2022-08-07T03:28:38.024Z,95.86
2022-08-07T03:29:32.050Z,95.65
2022-08-07T03:30:31.684Z,95.96
2022-08-07T03:31:42.878Z,95.96
2022-08-07T03:32:32.025Z,95.55
2022-08-07T03:33:32.307Z,95.96
2022-08-07T03:34:32.003Z,95.96
2022-08-07T03:35:37.911Z,96.06
2022-08-07T03:36:31.980Z,96.06
2022-08-07T03:37:32.767Z,96.06
2022-08-07T03:38:33.328Z,95.65
2022-08-07T03:39:58.882Z,96.06
2022-08-07T03:40:36.566Z,95.96
2022-08-07T03:41:42.551Z,95.86
2022-08-07T03:42:31.934Z,95.75
2022-08-07T03:43:32.236Z,95.86
2022-08-07T03:44:34.527Z,96.06
2022-08-07T03:45:31.607Z,95.55
2022-08-07T03:46:31.945Z,96.06
2022-08-07T04:01:53.108Z,96.97
2022-08-07T04:02:56.791Z,97.49
2022-08-07T04:03:55.023Z,97.60
2022-08-07T04:04:54.125Z,97.28
2022-08-07T04:05:58.876Z,97.24
2022-08-07T04:06:55.120Z,97.14
2022-08-07T04:07:54.099Z,96.93
2022-08-07T04:08:54.095Z,97.03
2022-08-07T04:09:54.090Z,96.83
2022-08-07T04:12:20.775Z,96.72
2022-08-07T04:12:28.268Z,96.62
2022-08-07T04:12:55.066Z,96.93
2022-08-07T04:14:09.389Z,95.80
2022-08-07T04:14:55.058Z,96.00
2022-08-07T04:15:54.062Z,96.21
2022-08-07T04:16:58.390Z,96.11
2022-08-07T04:18:58.695Z,96.89
2022-08-07T04:18:59.338Z,96.58
2022-08-07T04:19:55.333Z,95.65
2022-08-07T04:20:54.623Z,95.96
2022-08-07T04:21:59.681Z,96.06
2022-08-07T04:23:01.866Z,95.45
2022-08-07T04:24:07.094Z,95.40
2022-08-07T04:24:54.987Z,95.15
2022-08-07T04:25:53.993Z,94.55
2022-08-07T04:26:53.977Z,92.93
2022-08-07T04:28:00.378Z,90.69
2022-08-07T04:28:54.931Z,89.72
2022-08-07T04:30:01.260Z,88.51
2022-08-07T04:30:57.387Z,86.63
2022-08-07T04:32:02.898Z,84.85
2022-08-07T04:32:58.288Z,83.85
2022-08-07T04:33:55.118Z,83.20
2022-08-07T04:34:53.910Z,82.75
2022-08-07T04:35:54.260Z,81.04
2022-08-07T04:36:53.914Z,80.09
2022-08-07T04:38:03.332Z,78.93
2022-08-07T04:38:54.869Z,78.32
2022-08-07T04:39:53.931Z,77.23
2022-08-07T04:40:56.697Z,76.96
2022-08-07T04:41:53.839Z,77.78
2022-08-07T04:42:53.857Z,77.64
2022-08-07T04:44:11.863Z,76.76
2022-08-07T04:45:03.013Z,77.57
2022-08-07T04:46:01.033Z,77.06
2022-08-07T04:47:03.873Z,76.52
2022-08-07T04:47:58.610Z,76.62
2022-08-07T04:48:55.432Z,76.38
2022-08-07T04:50:03.595Z,75.84
2022-08-07T04:50:54.774Z,75.80
2022-08-07T04:51:53.795Z,74.99
2022-08-07T04:52:53.742Z,74.04
2022-08-07T04:54:01.583Z,73.80
2022-08-07T04:54:54.739Z,73.70
2022-08-07T04:58:10.352Z,73.26
2022-08-07T04:58:15.219Z,71.37
2022-08-07T04:58:15.735Z,71.30
2022-08-07T04:59:17.405Z,71.73
2022-08-07T05:00:11.764Z,72.25
2022-08-07T05:00:54.804Z,72.72
2022-08-07T05:01:53.676Z,72.21
2022-08-07T05:02:53.666Z,71.57
2022-08-07T05:04:07.951Z,71.40
2022-08-07T05:04:54.655Z,70.79
2022-08-07T05:05:57.120Z,70.59
2022-08-07T05:06:54.649Z,71.20
2022-08-07T05:07:55.578Z,69.44
2022-08-07T05:09:00.862Z,69.07
2022-08-07T05:09:54.631Z,68.23
2022-08-07T05:10:58.475Z,66.78
2022-08-07T05:11:56.836Z,66.65
2022-08-07T05:12:56.188Z,65.68
2022-08-07T05:14:51.941Z,65.68
2022-08-07T05:15:04.047Z,67.22
2022-08-07T05:15:55.595Z,68.37
2022-08-07T05:16:53.565Z,69.21
2022-08-07T05:17:54.941Z,69.07
2022-08-07T05:18:53.586Z,68.74
2022-08-07T05:19:53.568Z,65.95
2022-08-07T05:20:53.679Z,66.02
2022-08-07T05:22:00.247Z,65.61
2022-08-07T05:22:54.541Z,65.54
2022-08-07T05:23:53.521Z,65.95
2022-08-07T05:24:53.540Z,66.02
2022-08-07T05:26:10.412Z,64.87
2022-08-07T05:26:54.490Z,63.93
2022-08-07T05:28:03.202Z,64.04
2022-08-07T05:28:55.614Z,65.11
2022-08-07T05:29:53.737Z,65.75
2022-08-07T05:30:53.495Z,66.99
2022-08-07T05:31:53.467Z,65.78
2022-08-07T05:32:53.445Z,64.34
2022-08-07T05:34:04.474Z,63.87
2022-08-07T05:34:54.442Z,63.14
2022-08-07T05:35:53.435Z,62.30
2022-08-07T05:36:53.454Z,62.24
2022-08-07T05:38:08.652Z,61.90
2022-08-07T05:39:00.803Z,62.94
2022-08-07T05:40:13.746Z,62.71
2022-08-07T05:40:54.431Z,62.10
2022-08-07T05:42:02.375Z,62.51
2022-08-07T05:42:55.831Z,62.81
2022-08-07T05:44:12.237Z,61.87
2022-08-07T05:45:14.062Z,61.87
2022-08-07T05:45:56.519Z,63.24
2022-08-07T05:46:53.447Z,64.34
2022-08-07T05:48:01.141Z,65.85
2022-08-07T05:48:58.363Z,66.05
2022-08-07T05:49:54.346Z,64.78
2022-08-07T05:50:53.306Z,63.18
2022-08-07T05:51:53.451Z,61.08
2022-08-07T05:52:53.294Z,60.71
2022-08-07T05:54:09.581Z,60.77
2022-08-07T05:54:55.807Z,62.90
2022-08-07T05:56:03.735Z,63.57
2022-08-07T05:56:54.709Z,64.58
2022-08-07T05:57:53.250Z,63.98
2022-08-07T05:58:53.244Z,64.22
2022-08-07T05:59:57.290Z,62.07
2022-08-07T06:00:53.224Z,62.55
2022-08-07T06:01:53.291Z,62.81
2022-08-07T06:02:53.238Z,64.55
2022-08-07T06:03:58.549Z,63.28
2022-08-07T06:04:54.214Z,62.39
2022-08-07T06:05:56.656Z,59.88
2022-08-07T06:06:56.438Z,60.55
2022-08-07T06:08:12.902Z,60.51
2022-08-07T06:08:54.176Z,59.34
2022-08-07T06:10:05.504Z,58.59
2022-08-07T06:10:54.860Z,59.34
2022-08-07T06:11:53.153Z,58.69
2022-08-07T06:12:53.176Z,58.29
2022-08-07T06:14:11.731Z,58.81
2022-08-07T06:14:54.134Z,58.59
2022-08-07T06:15:53.119Z,59.16
2022-08-07T06:16:56.252Z,58.76
2022-08-07T06:17:53.723Z,59.09
2022-08-07T06:18:55.613Z,57.43
2022-08-07T06:20:03.434Z,57.17
2022-08-07T06:22:11.654Z,58.13
2022-08-07T06:22:14.628Z,56.15
2022-08-07T06:23:02.178Z,58.18
2022-08-07T06:24:45.641Z,58.79
2022-08-07T06:24:58.480Z,57.93
2022-08-07T06:25:56.907Z,57.78
2022-08-07T06:26:53.028Z,56.02
2022-08-07T06:28:01.103Z,55.62
2022-08-07T06:28:54.025Z,56.17
2022-08-07T06:29:53.041Z,56.55
2022-08-07T06:30:53.197Z,55.36
2022-08-07T06:31:53.043Z,53.89
2022-08-07T06:32:52.987Z,52.51
2022-08-07T06:33:52.982Z,52.00
2022-08-07T06:34:52.967Z,54.06
2022-08-07T06:36:13.380Z,54.67
2022-08-07T06:36:53.971Z,54.82
2022-08-07T06:37:53.066Z,56.20
2022-08-07T06:40:12.681Z,57.73
2022-08-07T06:40:17.843Z,58.03
2022-08-07T06:40:53.978Z,56.57
2022-08-07T06:42:02.689Z,56.17
2022-08-07T06:42:53.905Z,54.77
2022-08-07T06:44:01.343Z,56.33
2022-08-07T06:44:53.890Z,56.48
2022-08-07T06:45:55.337Z,57.56
2022-08-07T06:47:10.452Z,56.67
2022-08-07T06:47:58.571Z,55.35
2022-08-07T06:48:53.891Z,56.43
2022-08-07T06:49:58.649Z,58.09
2022-08-07T06:50:54.874Z,58.49
2022-08-07T06:51:53.913Z,57.35
2022-08-07T06:52:53.845Z,58.13
2022-08-07T06:55:27.766Z,58.09
2022-08-07T06:55:31.286Z,59.17
2022-08-07T06:56:01.463Z,59.78
2022-08-07T06:56:53.796Z,59.29
2022-08-07T06:57:56.926Z,58.01
2022-08-07T07:00:12.532Z,58.44
2022-08-07T07:00:13.373Z,58.44
2022-08-07T07:00:53.772Z,59.25
2022-08-07T07:01:52.861Z,59.34
2022-08-07T07:02:57.748Z,58.92
2022-08-07T07:03:58.892Z,58.54
2022-08-07T07:04:54.996Z,59.12
2022-08-07T07:06:05.156Z,58.31
2022-08-07T07:07:00.209Z,58.62
2022-08-07T07:07:59.441Z,59.20
2022-08-07T07:08:53.736Z,59.65
2022-08-07T07:09:52.732Z,58.11
2022-08-07T07:10:54.909Z,57.86
2022-08-07T07:12:09.682Z,56.37
2022-08-07T07:12:53.816Z,56.60
2022-08-07T07:13:58.277Z,56.71
2022-08-07T07:14:53.704Z,58.22
2022-08-07T07:15:52.670Z,56.96
2022-08-07T07:16:53.350Z,56.60
2022-08-07T07:17:52.645Z,55.74
2022-08-07T07:18:52.732Z,55.02
2022-08-07T07:19:57.688Z,56.20
2022-08-07T07:20:53.675Z,56.85
2022-08-07T07:22:04.595Z,56.57
2022-08-07T07:24:07.061Z,54.06
2022-08-07T07:24:11.126Z,54.79
2022-08-07T07:24:56.666Z,53.74
2022-08-07T07:26:32.686Z,54.67
2022-08-07T07:26:54.314Z,55.60
2022-08-07T07:27:56.190Z,54.55
2022-08-07T07:29:38.931Z,54.87
2022-08-07T07:30:09.056Z,54.94
2022-08-07T07:30:53.551Z,54.42
2022-08-07T07:31:52.577Z,53.74
2022-08-07T07:32:52.537Z,52.99
2022-08-07T07:33:56.820Z,54.05
2022-08-07T07:34:53.536Z,55.93
2022-08-07T07:36:05.602Z,55.98
2022-08-07T07:36:54.206Z,54.24
2022-08-07T07:38:02.092Z,53.72
2022-08-07T07:38:54.533Z,54.19
2022-08-07T07:39:55.283Z,53.89
2022-08-07T07:40:52.487Z,54.57
2022-08-07T07:42:13.251Z,55.44
2022-08-07T07:42:54.026Z,54.35
2022-08-07T07:44:17.143Z,53.94
2022-08-07T07:44:53.467Z,54.85
2022-08-07T07:46:36.836Z,54.42
2022-08-07T07:47:00.242Z,54.14
2022-08-07T07:47:53.626Z,51.97
2022-08-07T07:49:00.287Z,50.67
2022-08-07T07:50:34.516Z,50.67
2022-08-07T07:50:53.400Z,50.77
2022-08-07T07:51:57.425Z,52.09
2022-08-07T07:52:53.403Z,50.30
2022-08-07T07:53:52.781Z,49.28
2022-08-07T07:54:53.451Z,49.80
2022-08-07T07:55:54.812Z,50.15
2022-08-07T07:56:53.380Z,52.44
2022-08-07T07:57:54.036Z,51.79
2022-08-07T07:58:53.381Z,51.97
2022-08-07T07:59:53.942Z,50.30
2022-08-07T08:00:54.122Z,50.02
2022-08-07T08:02:01.929Z,50.47
2022-08-07T08:03:04.621Z,50.05
2022-08-07T08:04:09.344Z,49.51
2022-08-07T08:04:53.395Z,48.28
2022-08-07T08:05:54.912Z,48.19
2022-08-07T08:06:53.356Z,49.40
2022-08-07T08:08:00.994Z,48.98
2022-08-07T08:08:53.292Z,48.38
2022-08-07T08:10:05.132Z,48.46
2022-08-07T08:10:53.280Z,47.05
2022-08-07T08:12:02.200Z,47.79
2022-08-07T08:12:59.637Z,50.00
2022-08-07T08:13:55.806Z,49.83
2022-08-07T08:14:52.230Z,47.89
2022-08-07T08:15:58.596Z,48.28
2022-08-07T08:16:53.252Z,48.55
2022-08-07T08:17:58.087Z,48.65
2022-08-07T08:18:53.243Z,49.25
2022-08-07T08:20:17.523Z,48.43
2022-08-07T08:20:54.040Z,47.86
2022-08-07T08:21:58.610Z,46.92
2022-08-07T08:23:24.151Z,46.23
2022-08-07T08:23:52.190Z,46.62
2022-08-07T08:25:04.438Z,47.05
2022-08-07T08:25:54.565Z,46.28
2022-08-07T08:26:52.180Z,45.89
2022-08-07T08:27:57.322Z,46.08
2022-08-07T08:28:53.144Z,46.41
2022-08-07T08:29:55.716Z,46.25
2022-08-07T08:30:55.606Z,46.72
2022-08-07T08:32:17.366Z,46.50
2022-08-07T08:32:53.926Z,46.70
2022-08-07T08:33:55.911Z,46.08
2022-08-07T08:34:53.145Z,45.68
2022-08-07T08:35:52.152Z,45.59
2022-08-07T08:36:56.221Z,45.45
2022-08-07T08:38:00.697Z,46.31
2022-08-07T08:38:53.102Z,46.16
2022-08-07T08:39:55.202Z,45.96
2022-08-07T08:40:53.114Z,45.71
2022-08-07T08:41:58.667Z,45.07
2022-08-07T08:42:53.061Z,45.49
2022-08-07T08:43:59.205Z,45.76
2022-08-07T08:44:53.174Z,45.23
2022-08-07T08:45:59.048Z,44.25
2022-08-07T08:46:53.017Z,44.19
2022-08-07T08:47:54.874Z,44.21
2022-08-07T08:48:52.785Z,43.57
2022-08-07T08:50:02.781Z,42.90
2022-08-07T08:50:54.801Z,44.23
2022-08-07T08:52:14.009Z,43.24
2022-08-07T08:52:54.270Z,44.23
2022-08-07T08:53:51.991Z,45.81
2022-08-07T08:54:51.971Z,45.49
2022-08-07T08:55:54.414Z,44.99
2022-08-07T08:56:52.966Z,44.35
2022-08-07T08:57:52.111Z,44.35
2022-08-07T08:58:54.909Z,44.35
2022-08-07T08:59:54.778Z,44.87
2022-08-07T09:00:52.606Z,46.05
2022-08-07T09:01:51.985Z,47.47
2022-08-07T09:02:54.004Z,47.37
2022-08-07T09:03:52.710Z,47.10
2022-08-07T09:04:55.004Z,43.99
2022-08-07T09:05:57.388Z,42.27
2022-08-07T09:06:53.735Z,41.28
2022-08-07T09:07:58.319Z,41.44
2022-08-07T09:08:52.881Z,40.90
2022-08-07T09:09:57.060Z,40.84
2022-08-07T09:10:52.900Z,40.94
2022-08-07T09:11:56.198Z,40.62
2022-08-07T09:12:53.185Z,42.43
2022-08-07T09:13:51.817Z,42.60
2022-08-07T09:14:58.719Z,41.24
2022-08-07T09:16:24.389Z,40.55
2022-08-07T09:16:52.790Z,40.58
2022-08-07T09:17:59.545Z,41.33
2022-08-07T09:18:58.591Z,40.78
2022-08-07T09:19:55.441Z,38.96
2022-08-07T09:20:58.312Z,38.96
2022-08-07T09:22:09.760Z,38.67
2022-08-07T09:24:35.085Z,39.20
2022-08-07T09:24:54.865Z,39.22
2022-08-07T09:25:00.450Z,38.75
2022-08-07T09:25:54.265Z,36.98
2022-08-07T09:26:51.761Z,37.34
2022-08-07T09:27:54.541Z,38.35
2022-08-07T09:30:04.150Z,39.73
2022-08-07T09:30:04.787Z,40.20
2022-08-07T09:30:54.899Z,41.44
2022-08-07T09:31:52.878Z,41.49
2022-08-07T09:32:52.316Z,39.65
2022-08-07T09:33:56.981Z,40.07
2022-08-07T09:34:54.318Z,38.96
2022-08-07T09:36:03.865Z,39.22
2022-08-07T09:36:52.649Z,38.82
2022-08-07T09:37:53.953Z,39.10
2022-08-07T09:38:53.974Z,39.79
2022-08-07T09:39:53.903Z,41.12
2022-08-07T09:40:53.133Z,40.52
2022-08-07T09:41:58.930Z,40.74
2022-08-07T09:42:52.611Z,40.84
2022-08-07T09:44:05.336Z,39.50
2022-08-07T09:47:24.545Z,39.03
2022-08-07T09:47:50.658Z,35.94
2022-08-07T09:47:51.123Z,36.70
2022-08-07T09:48:02.486Z,33.94
2022-08-07T09:50:01.739Z,36.98
2022-08-07T09:50:02.272Z,35.72
2022-08-07T09:50:52.552Z,38.07
2022-08-07T09:52:15.425Z,39.53
2022-08-07T09:52:53.913Z,39.22
2022-08-07T09:53:57.002Z,38.24
2022-08-07T09:54:53.622Z,39.53
2022-08-07T09:56:03.417Z,38.92
2022-08-07T09:56:52.519Z,38.09
2022-08-07T09:57:51.584Z,38.17
2022-08-07T09:58:51.498Z,36.49
2022-08-07T10:00:00.718Z,38.15
2022-08-07T10:00:52.559Z,39.34
2022-08-07T10:01:54.345Z,38.21
2022-08-07T10:02:55.072Z,38.39
2022-08-07T10:04:05.008Z,37.30
2022-08-07T10:04:53.042Z,38.13
2022-08-07T10:05:59.278Z,39.07
2022-08-07T10:06:54.015Z,40.33
2022-08-07T10:07:53.652Z,41.09
2022-08-07T10:08:51.478Z,40.23
2022-08-07T10:10:01.131Z,39.20
2022-08-07T10:12:01.578Z,39.08
2022-08-07T10:12:52.648Z,38.37
2022-08-07T10:14:00.733Z,37.68
2022-08-07T10:14:55.191Z,38.17
2022-08-07T10:15:51.944Z,37.26
2022-08-07T10:16:51.394Z,37.16
2022-08-07T10:18:01.875Z,37.77
2022-08-07T10:18:52.366Z,37.38
2022-08-07T10:19:51.394Z,37.58
2022-08-07T10:20:51.347Z,37.28
2022-08-07T10:22:15.822Z,37.72
2022-08-07T10:22:52.378Z,36.80
2022-08-07T10:24:05.582Z,35.99
2022-08-07T10:24:52.315Z,37.15
2022-08-07T10:25:51.974Z,37.85
2022-08-07T10:26:53.044Z,38.19
2022-08-07T10:27:51.643Z,38.27
2022-08-07T10:28:51.336Z,37.98
2022-08-07T10:29:51.677Z,37.74
2022-08-07T10:30:51.285Z,37.11
2022-08-07T10:31:51.258Z,37.46
2022-08-07T10:32:53.614Z,38.76
2022-08-07T10:34:06.909Z,37.66
2022-08-07T10:34:52.229Z,36.71
2022-08-07T10:35:56.675Z,38.03
2022-08-07T10:36:52.229Z,39.28
2022-08-07T10:38:21.120Z,37.10
2022-08-07T10:38:52.581Z,37.30
2022-08-07T10:40:03.350Z,37.10
2022-08-07T10:40:52.210Z,37.75
2022-08-07T10:41:53.848Z,38.32
2022-08-07T10:42:52.343Z,38.09
2022-08-07T10:43:51.184Z,36.98
2022-08-07T10:44:52.232Z,36.77
2022-08-07T10:45:58.224Z,37.34
2022-08-07T10:46:53.162Z,36.91
2022-08-07T10:47:53.157Z,36.82
2022-08-07T10:48:51.139Z,36.25
2022-08-07T10:49:51.783Z,36.88
2022-08-07T10:50:51.867Z,37.70
2022-08-07T10:52:02.061Z,37.08
2022-08-07T10:52:52.149Z,36.98
2022-08-07T10:53:51.154Z,37.71
2022-08-07T10:54:53.371Z,38.13
2022-08-07T10:55:53.350Z,37.75
2022-08-07T10:56:51.088Z,38.24
2022-08-07T10:57:56.086Z,37.49
2022-08-07T10:58:56.718Z,37.20
2022-08-07T10:59:52.053Z,37.00
2022-08-07T11:00:55.950Z,37.34
2022-08-07T11:02:04.668Z,37.02
2022-08-07T11:02:53.883Z,36.80
2022-08-07T11:03:55.059Z,36.72
2022-08-07T11:04:52.041Z,37.04
2022-08-07T11:05:51.372Z,37.28
2022-08-07T11:06:51.041Z,36.75
2022-08-07T11:07:59.205Z,36.12
2022-08-07T11:08:52.062Z,35.10
2022-08-07T11:10:07.606Z,35.89
2022-08-07T11:10:57.893Z,35.91
2022-08-07T11:11:52.992Z,36.21
2022-08-07T11:13:01.623Z,35.66
2022-08-07T11:14:43.877Z,35.80
2022-08-07T11:15:00.421Z,35.91
2022-08-07T11:15:54.662Z,36.03
2022-08-07T11:16:54.633Z,36.96
2022-08-07T11:17:53.994Z,37.26
2022-08-07T11:18:51.737Z,37.43
2022-08-07T11:19:51.506Z,36.64
2022-08-07T11:20:50.942Z,36.69
2022-08-07T11:21:50.915Z,35.99
2022-08-07T11:22:50.929Z,36.35
2022-08-07T11:23:50.888Z,37.43
2022-08-07T11:24:51.775Z,37.51
2022-08-07T11:25:50.906Z,36.90
2022-08-07T11:26:50.889Z,36.52
2022-08-07T11:28:01.795Z,36.13
2022-08-07T11:28:55.298Z,36.52
2022-08-07T11:30:10.031Z,36.71
2022-08-07T11:30:52.857Z,36.67
2022-08-07T11:31:51.813Z,36.47
2022-08-07T11:32:53.597Z,36.06
2022-08-07T11:33:58.548Z,37.07
2022-08-07T11:34:52.353Z,35.78
2022-08-07T11:35:59.864Z,36.08
2022-08-07T11:36:51.856Z,35.37
2022-08-07T11:37:57.778Z,35.35
2022-08-07T11:38:51.777Z,36.24
2022-08-07T11:40:00.727Z,35.85
2022-08-07T11:40:51.785Z,35.75
2022-08-07T11:42:01.540Z,35.75
2022-08-07T11:42:51.752Z,36.06
2022-08-07T11:44:11.402Z,35.43
2022-08-07T11:44:57.502Z,35.41
2022-08-07T11:45:53.655Z,35.43
2022-08-07T11:46:50.753Z,36.06
2022-08-07T11:47:56.144Z,36.21
2022-08-07T11:49:27.617Z,37.22
2022-08-07T11:50:30.361Z,36.69
2022-08-07T11:50:57.899Z,35.72
2022-08-07T11:51:51.753Z,36.62
2022-08-07T11:52:51.287Z,37.00
2022-08-07T11:54:00.643Z,35.30
2022-08-07T11:54:54.949Z,35.93
2022-08-07T11:56:09.253Z,36.76
2022-08-07T11:56:52.313Z,36.35
2022-08-07T11:58:00.064Z,35.32
2022-08-07T11:58:51.651Z,35.12
2022-08-07T12:00:10.897Z,35.65
2022-08-07T12:01:02.402Z,36.77
2022-08-07T12:01:59.021Z,37.19
2022-08-07T12:02:53.539Z,36.71
2022-08-07T12:03:50.851Z,36.68
2022-08-07T12:04:50.600Z,36.62
2022-08-07T12:05:51.390Z,35.42
2022-08-07T12:07:00.335Z,36.03
2022-08-07T12:07:53.690Z,35.91
2022-08-07T12:08:52.481Z,35.82
2022-08-07T12:09:50.563Z,36.88
2022-08-07T12:11:08.196Z,35.49
2022-08-07T12:12:09.011Z,36.69
2022-08-07T12:12:51.527Z,36.33
2022-08-07T12:13:51.391Z,37.05
2022-08-07T12:14:56.153Z,37.37
2022-08-07T12:16:07.045Z,37.23
2022-08-07T12:16:51.521Z,37.84
2022-08-07T12:17:58.978Z,38.42
2022-08-07T12:18:51.520Z,38.64
2022-08-07T12:19:56.498Z,37.56
2022-08-07T12:20:52.511Z,38.45
2022-08-07T12:21:55.535Z,38.71
2022-08-07T12:22:56.537Z,39.29
2022-08-07T12:24:05.318Z,37.59
2022-08-07T12:24:52.414Z,37.26
2022-08-07T12:26:02.797Z,37.39
2022-08-07T12:26:51.500Z,37.70
2022-08-07T12:28:08.872Z,37.49
2022-08-07T12:28:53.089Z,38.28
2022-08-07T12:29:51.803Z,38.20
2022-08-07T12:30:53.359Z,36.76
2022-08-07T12:32:01.924Z,37.24
2022-08-07T12:32:51.396Z,37.34
2022-08-07T12:33:56.088Z,38.46
2022-08-07T12:34:55.719Z,38.72
2022-08-07T12:35:58.165Z,37.95
2022-08-07T12:36:51.394Z,37.65
2022-08-07T12:38:09.149Z,38.38
2022-08-07T12:38:57.113Z,38.90
2022-08-07T12:39:51.737Z,38.79
2022-08-07T12:40:50.809Z,38.48
2022-08-07T12:41:51.861Z,38.48
2022-08-07T12:42:55.099Z,37.34
2022-08-07T12:44:03.697Z,36.82
2022-08-07T12:44:51.288Z,37.02
2022-08-07T12:45:52.433Z,37.83
2022-08-07T12:46:50.974Z,37.40
2022-08-07T12:47:50.351Z,36.10
2022-08-07T12:48:53.271Z,35.98
2022-08-07T12:49:51.799Z,35.98
2022-08-07T12:50:51.067Z,35.58
2022-08-07T12:52:12.240Z,35.98
2022-08-07T12:52:52.966Z,36.06
2022-08-07T12:54:02.974Z,35.43
2022-08-07T12:54:54.369Z,35.04
2022-08-07T12:56:03.095Z,35.14
2022-08-07T12:56:55.258Z,34.44
2022-08-07T12:58:00.979Z,35.93
2022-08-07T12:58:53.187Z,35.63
2022-08-07T12:59:54.312Z,35.66
2022-08-07T13:00:50.886Z,35.88
2022-08-07T13:01:50.238Z,36.98
2022-08-07T13:02:50.172Z,36.92
2022-08-07T13:04:02.483Z,38.17
2022-08-07T13:05:01.781Z,37.35
2022-08-07T13:06:03.763Z,37.57
2022-08-07T13:06:54.302Z,38.17
2022-08-07T13:08:13.752Z,38.56
2022-08-07T13:08:51.113Z,37.45
2022-08-07T13:10:20.479Z,37.63
2022-08-07T13:10:51.871Z,37.41
2022-08-07T13:12:03.322Z,37.48
2022-08-07T13:12:51.144Z,36.98
2022-08-07T13:13:50.402Z,36.59
2022-08-07T13:14:51.445Z,37.10
2022-08-07T13:15:51.540Z,37.73
2022-08-07T13:16:50.814Z,36.80
2022-08-07T13:17:50.064Z,36.51
2022-08-07T13:18:51.056Z,36.10
2022-08-07T13:19:51.659Z,36.82
2022-08-07T13:20:51.825Z,36.74
2022-08-07T13:21:59.749Z,36.82
2022-08-07T13:22:53.325Z,36.61
2022-08-07T13:24:01.301Z,38.54